sensor_id;sensor_type;location;lat;lon;timestamp;temperature;humidity
12233;DHT22;6179;51.748;8.728;2023-04-23T00:01:18;13.60;98.30
12233;DHT22;6179;51.748;8.728;2023-04-23T00:07:21;13.60;98.30
12233;DHT22;6179;51.748;8.728;2023-04-23T00:13:21;13.40;98.30
12233;DHT22;6179;51.748;8.728;2023-04-23T00:19:22;13.20;98.30
12233;DHT22;6179;51.748;8.728;2023-04-23T00:25:23;13.30;98.30
12233;DHT22;6179;51.748;8.728;2023-04-23T00:31:24;12.90;98.30
12233;DHT22;6179;51.748;8.728;2023-04-23T00:37:26;12.90;98.30
12233;DHT22;6179;51.748;8.728;2023-04-23T00:43:27;12.90;98.30
12233;DHT22;6179;51.748;8.728;2023-04-23T00:49:28;12.70;98.30
12233;DHT22;6179;51.748;8.728;2023-04-23T00:55:29;12.80;98.30
12233;DHT22;6179;51.748;8.728;2023-04-23T01:01:29;12.80;98.30
12233;DHT22;6179;51.748;8.728;2023-04-23T01:07:34;12.70;98.30
12233;DHT22;6179;51.748;8.728;2023-04-23T01:13:35;12.70;98.30
12233;DHT22;6179;51.748;8.728;2023-04-23T01:19:35;12.80;98.30
12233;DHT22;6179;51.748;8.728;2023-04-23T01:25:37;12.80;98.30
12233;DHT22;6179;51.748;8.728;2023-04-23T01:31:38;12.70;98.30
12233;DHT22;6179;51.748;8.728;2023-04-23T01:37:39;13.00;98.30
12233;DHT22;6179;51.748;8.728;2023-04-23T01:43:43;12.30;98.30
12233;DHT22;6179;51.748;8.728;2023-04-23T01:49:44;12.00;98.30
12233;DHT22;6179;51.748;8.728;2023-04-23T01:55:46;12.00;98.30
12233;DHT22;6179;51.748;8.728;2023-04-23T02:01:48;11.80;98.30
12233;DHT22;6179;51.748;8.728;2023-04-23T02:07:49;12.10;98.30
12233;DHT22;6179;51.748;8.728;2023-04-23T02:13:50;12.30;98.30
12233;DHT22;6179;51.748;8.728;2023-04-23T02:19:51;12.20;98.30
12233;DHT22;6179;51.748;8.728;2023-04-23T02:25:54;11.50;98.30
12233;DHT22;6179;51.748;8.728;2023-04-23T02:31:54;11.40;98.30
12233;DHT22;6179;51.748;8.728;2023-04-23T02:37:55;11.30;98.30
12233;DHT22;6179;51.748;8.728;2023-04-23T02:43:56;11.30;98.30
12233;DHT22;6179;51.748;8.728;2023-04-23T02:49:57;11.20;98.30
12233;DHT22;6179;51.748;8.728;2023-04-23T02:55:58;11.20;98.30
12233;DHT22;6179;51.748;8.728;2023-04-23T03:01:59;10.90;98.30
12233;DHT22;6179;51.748;8.728;2023-04-23T03:08:00;11.30;98.30
12233;DHT22;6179;51.748;8.728;2023-04-23T03:14:00;11.00;98.30
12233;DHT22;6179;51.748;8.728;2023-04-23T03:20:01;10.80;98.30
12233;DHT22;6179;51.748;8.728;2023-04-23T03:26:02;10.70;98.30
12233;DHT22;6179;51.748;8.728;2023-04-23T03:32:03;10.80;98.30
12233;DHT22;6179;51.748;8.728;2023-04-23T03:38:04;11.00;98.30
12233;DHT22;6179;51.748;8.728;2023-04-23T03:44:04;10.90;98.30
12233;DHT22;6179;51.748;8.728;2023-04-23T03:50:06;11.20;98.30
12233;DHT22;6179;51.748;8.728;2023-04-23T03:56:07;11.30;98.30
12233;DHT22;6179;51.748;8.728;2023-04-23T04:02:08;11.20;98.30
12233;DHT22;6179;51.748;8.728;2023-04-23T04:08:08;11.30;98.30
12233;DHT22;6179;51.748;8.728;2023-04-23T04:14:09;11.40;98.30
12233;DHT22;6179;51.748;8.728;2023-04-23T04:20:10;11.60;98.30
12233;DHT22;6179;51.748;8.728;2023-04-23T04:26:11;11.50;98.30
12233;DHT22;6179;51.748;8.728;2023-04-23T04:32:12;11.70;98.30
12233;DHT22;6179;51.748;8.728;2023-04-23T04:38:14;11.80;98.30
12233;DHT22;6179;51.748;8.728;2023-04-23T04:44:15;11.70;98.30
12233;DHT22;6179;51.748;8.728;2023-04-23T04:50:16;11.80;98.30
12233;DHT22;6179;51.748;8.728;2023-04-23T04:56:17;11.90;98.30
12233;DHT22;6179;51.748;8.728;2023-04-23T05:02:18;12.10;98.30
12233;DHT22;6179;51.748;8.728;2023-04-23T05:08:21;12.10;98.30
12233;DHT22;6179;51.748;8.728;2023-04-23T05:14:21;11.90;98.30
12233;DHT22;6179;51.748;8.728;2023-04-23T05:20:22;11.70;98.30
12233;DHT22;6179;51.748;8.728;2023-04-23T05:26:22;11.50;98.30
12233;DHT22;6179;51.748;8.728;2023-04-23T05:32:23;11.50;98.30
12233;DHT22;6179;51.748;8.728;2023-04-23T05:38:24;11.30;98.30
12233;DHT22;6179;51.748;8.728;2023-04-23T05:44:24;11.50;98.30
12233;DHT22;6179;51.748;8.728;2023-04-23T05:50:25;12.00;98.30
12233;DHT22;6179;51.748;8.728;2023-04-23T05:56:26;12.30;98.30
12233;DHT22;6179;51.748;8.728;2023-04-23T06:02:26;12.30;98.30
12233;DHT22;6179;51.748;8.728;2023-04-23T06:08:28;12.40;98.30
12233;DHT22;6179;51.748;8.728;2023-04-23T06:14:29;11.90;98.30
12233;DHT22;6179;51.748;8.728;2023-04-23T06:20:29;11.70;98.30
12233;DHT22;6179;51.748;8.728;2023-04-23T06:26:30;11.80;98.30
12233;DHT22;6179;51.748;8.728;2023-04-23T06:32:31;11.90;98.30
12233;DHT22;6179;51.748;8.728;2023-04-23T06:38:31;12.00;98.30
12233;DHT22;6179;51.748;8.728;2023-04-23T06:44:32;12.10;98.30
12233;DHT22;6179;51.748;8.728;2023-04-23T06:50:33;12.40;98.30
12233;DHT22;6179;51.748;8.728;2023-04-23T06:56:34;12.80;98.30
12233;DHT22;6179;51.748;8.728;2023-04-23T07:02:35;13.00;98.30
12233;DHT22;6179;51.748;8.728;2023-04-23T07:08:36;13.60;98.30
12233;DHT22;6179;51.748;8.728;2023-04-23T07:14:38;13.80;97.60
12233;DHT22;6179;51.748;8.728;2023-04-23T07:20:39;13.70;97.00
12233;DHT22;6179;51.748;8.728;2023-04-23T07:26:40;13.40;95.40
12233;DHT22;6179;51.748;8.728;2023-04-23T07:32:40;13.50;93.10
12233;DHT22;6179;51.748;8.728;2023-04-23T07:38:42;14.30;90.60
12233;DHT22;6179;51.748;8.728;2023-04-23T07:44:42;14.10;93.10
12233;DHT22;6179;51.748;8.728;2023-04-23T07:50:43;14.10;90.90
12233;DHT22;6179;51.748;8.728;2023-04-23T07:56:44;14.60;90.80
12233;DHT22;6179;51.748;8.728;2023-04-23T08:02:45;14.70;88.80
12233;DHT22;6179;51.748;8.728;2023-04-23T08:08:46;15.20;88.10
12233;DHT22;6179;51.748;8.728;2023-04-23T08:14:47;15.30;88.40
12233;DHT22;6179;51.748;8.728;2023-04-23T08:20:48;14.90;89.90
12233;DHT22;6179;51.748;8.728;2023-04-23T08:26:48;15.00;89.70
12233;DHT22;6179;51.748;8.728;2023-04-23T08:32:50;15.50;88.00
12233;DHT22;6179;51.748;8.728;2023-04-23T08:38:53;15.70;86.60
12233;DHT22;6179;51.748;8.728;2023-04-23T08:44:54;15.70;87.90
12233;DHT22;6179;51.748;8.728;2023-04-23T08:50:56;16.30;86.80
12233;DHT22;6179;51.748;8.728;2023-04-23T08:56:57;16.20;87.80
12233;DHT22;6179;51.748;8.728;2023-04-23T09:02:58;16.80;84.50
12233;DHT22;6179;51.748;8.728;2023-04-23T09:08:59;16.90;81.60
12233;DHT22;6179;51.748;8.728;2023-04-23T09:15:00;16.70;83.20
12233;DHT22;6179;51.748;8.728;2023-04-23T09:21:01;17.00;82.70
12233;DHT22;6179;51.748;8.728;2023-04-23T09:27:03;16.90;83.10
12233;DHT22;6179;51.748;8.728;2023-04-23T09:33:04;17.30;82.90
12233;DHT22;6179;51.748;8.728;2023-04-23T09:39:14;17.70;82.50
12233;DHT22;6179;51.748;8.728;2023-04-23T09:45:15;17.60;81.00
12233;DHT22;6179;51.748;8.728;2023-04-23T09:51:16;17.50;81.30
12233;DHT22;6179;51.748;8.728;2023-04-23T09:57:17;17.90;79.70
12233;DHT22;6179;51.748;8.728;2023-04-23T10:03:25;18.10;76.10
12233;DHT22;6179;51.748;8.728;2023-04-23T10:09:27;18.50;78.60
12233;DHT22;6179;51.748;8.728;2023-04-23T10:15:29;18.90;79.40
12233;DHT22;6179;51.748;8.728;2023-04-23T10:21:31;19.20;74.80
12233;DHT22;6179;51.748;8.728;2023-04-23T10:27:33;19.80;74.60
12233;DHT22;6179;51.748;8.728;2023-04-23T10:33:36;19.00;74.00
12233;DHT22;6179;51.748;8.728;2023-04-23T10:39:37;18.70;77.40
12233;DHT22;6179;51.748;8.728;2023-04-23T10:45:38;18.40;74.70
12233;DHT22;6179;51.748;8.728;2023-04-23T10:51:39;18.20;76.60
12233;DHT22;6179;51.748;8.728;2023-04-23T11:03:57;17.70;81.40
12233;DHT22;6179;51.748;8.728;2023-04-23T11:09:59;18.30;76.60
12233;DHT22;6179;51.748;8.728;2023-04-23T11:16:16;18.90;76.10
12233;DHT22;6179;51.748;8.728;2023-04-23T11:22:33;19.30;73.00
12233;DHT22;6179;51.748;8.728;2023-04-23T11:28:35;18.70;73.00
12233;DHT22;6179;51.748;8.728;2023-04-23T11:34:39;18.70;74.50
12233;DHT22;6179;51.748;8.728;2023-04-23T11:45:59;19.40;71.90
12233;DHT22;6179;51.748;8.728;2023-04-23T11:52:00;19.10;71.30
12233;DHT22;6179;51.748;8.728;2023-04-23T11:58:01;18.20;69.50
12233;DHT22;6179;51.748;8.728;2023-04-23T12:04:09;18.10;70.00
12233;DHT22;6179;51.748;8.728;2023-04-23T12:10:19;18.70;67.90
12233;DHT22;6179;51.748;8.728;2023-04-23T12:16:39;19.10;70.30
12233;DHT22;6179;51.748;8.728;2023-04-23T12:22:40;18.90;71.20
12233;DHT22;6179;51.748;8.728;2023-04-23T12:28:55;19.40;65.70
12233;DHT22;6179;51.748;8.728;2023-04-23T12:34:57;19.80;66.80
12233;DHT22;6179;51.748;8.728;2023-04-23T12:40:59;19.90;65.10
12233;DHT22;6179;51.748;8.728;2023-04-23T12:47:08;19.90;69.00
12233;DHT22;6179;51.748;8.728;2023-04-23T12:53:10;19.90;67.90
12233;DHT22;6179;51.748;8.728;2023-04-23T12:59:11;19.10;72.10
12233;DHT22;6179;51.748;8.728;2023-04-23T13:05:12;18.90;73.30
12233;DHT22;6179;51.748;8.728;2023-04-23T13:11:12;18.70;73.80
12233;DHT22;6179;51.748;8.728;2023-04-23T13:17:13;18.20;75.50
12233;DHT22;6179;51.748;8.728;2023-04-23T13:23:14;18.10;76.10
12233;DHT22;6179;51.748;8.728;2023-04-23T13:29:14;18.50;74.20
12233;DHT22;6179;51.748;8.728;2023-04-23T13:35:15;18.10;78.00
12233;DHT22;6179;51.748;8.728;2023-04-23T13:41:17;17.90;85.10
12233;DHT22;6179;51.748;8.728;2023-04-23T13:47:17;18.10;90.40
12233;DHT22;6179;51.748;8.728;2023-04-23T13:53:18;18.20;87.10
12233;DHT22;6179;51.748;8.728;2023-04-23T13:59:19;18.80;80.20
12233;DHT22;6179;51.748;8.728;2023-04-23T14:05:20;19.10;79.10
12233;DHT22;6179;51.748;8.728;2023-04-23T14:11:20;18.90;78.10
12233;DHT22;6179;51.748;8.728;2023-04-23T14:17:22;18.70;78.60
12233;DHT22;6179;51.748;8.728;2023-04-23T14:35:34;17.80;79.60
12233;DHT22;6179;51.748;8.728;2023-04-23T14:41:35;18.30;79.20
12233;DHT22;6179;51.748;8.728;2023-04-23T14:47:36;18.30;77.10
12233;DHT22;6179;51.748;8.728;2023-04-23T14:53:37;18.80;76.70
12233;DHT22;6179;51.748;8.728;2023-04-23T14:59:38;18.30;76.60
12233;DHT22;6179;51.748;8.728;2023-04-23T15:05:39;17.80;77.10
12233;DHT22;6179;51.748;8.728;2023-04-23T15:11:41;18.20;76.90
12233;DHT22;6179;51.748;8.728;2023-04-23T15:17:42;18.70;72.30
12233;DHT22;6179;51.748;8.728;2023-04-23T15:23:43;18.40;72.30
12233;DHT22;6179;51.748;8.728;2023-04-23T15:29:43;18.50;71.70
12233;DHT22;6179;51.748;8.728;2023-04-23T15:35:44;18.10;72.40
12233;DHT22;6179;51.748;8.728;2023-04-23T15:41:45;17.80;71.70
12233;DHT22;6179;51.748;8.728;2023-04-23T15:47:46;17.90;71.70
12233;DHT22;6179;51.748;8.728;2023-04-23T15:53:46;17.90;70.90
12233;DHT22;6179;51.748;8.728;2023-04-23T15:59:47;17.80;70.30
12233;DHT22;6179;51.748;8.728;2023-04-23T16:05:48;17.90;73.60
12233;DHT22;6179;51.748;8.728;2023-04-23T16:11:51;17.90;72.00
12233;DHT22;6179;51.748;8.728;2023-04-23T16:17:53;18.00;72.10
12233;DHT22;6179;51.748;8.728;2023-04-23T16:23:55;17.80;73.30
12233;DHT22;6179;51.748;8.728;2023-04-23T16:29:56;17.50;74.90
12233;DHT22;6179;51.748;8.728;2023-04-23T16:35:57;17.40;75.40
12233;DHT22;6179;51.748;8.728;2023-04-23T16:41:58;17.20;77.60
12233;DHT22;6179;51.748;8.728;2023-04-23T16:47:59;17.10;79.20
12233;DHT22;6179;51.748;8.728;2023-04-23T16:54:00;17.50;77.20
12233;DHT22;6179;51.748;8.728;2023-04-23T17:00:01;17.20;80.10
12233;DHT22;6179;51.748;8.728;2023-04-23T17:06:27;17.20;80.40
12233;DHT22;6179;51.748;8.728;2023-04-23T17:12:28;17.00;81.60
12233;DHT22;6179;51.748;8.728;2023-04-23T17:18:29;17.10;81.80
12233;DHT22;6179;51.748;8.728;2023-04-23T17:24:29;17.20;82.40
12233;DHT22;6179;51.748;8.728;2023-04-23T17:30:30;17.30;81.90
12233;DHT22;6179;51.748;8.728;2023-04-23T17:36:31;17.50;81.70
12233;DHT22;6179;51.748;8.728;2023-04-23T17:42:32;17.30;82.10
12233;DHT22;6179;51.748;8.728;2023-04-23T17:48:32;17.40;81.90
12233;DHT22;6179;51.748;8.728;2023-04-23T17:54:33;17.00;83.60
12233;DHT22;6179;51.748;8.728;2023-04-23T18:06:35;16.80;84.60
12233;DHT22;6179;51.748;8.728;2023-04-23T18:12:36;16.90;83.80
12233;DHT22;6179;51.748;8.728;2023-04-23T18:18:37;16.70;84.30
12233;DHT22;6179;51.748;8.728;2023-04-23T18:24:37;16.80;83.90
12233;DHT22;6179;51.748;8.728;2023-04-23T18:30:38;17.10;82.20
12233;DHT22;6179;51.748;8.728;2023-04-23T18:36:41;17.10;82.20
12233;DHT22;6179;51.748;8.728;2023-04-23T18:42:43;16.80;83.30
12233;DHT22;6179;51.748;8.728;2023-04-23T18:48:50;16.90;82.10
12233;DHT22;6179;51.748;8.728;2023-04-23T18:54:52;16.80;82.60
12233;DHT22;6179;51.748;8.728;2023-04-23T19:00:52;16.60;82.10
12233;DHT22;6179;51.748;8.728;2023-04-23T19:06:53;15.40;90.10
12233;DHT22;6179;51.748;8.728;2023-04-23T19:12:53;13.60;98.30
12233;DHT22;6179;51.748;8.728;2023-04-23T19:18:54;12.80;98.30
12233;DHT22;6179;51.748;8.728;2023-04-23T19:24:55;12.60;98.30
12233;DHT22;6179;51.748;8.728;2023-04-23T19:30:56;12.80;98.30
12233;DHT22;6179;51.748;8.728;2023-04-23T19:36:56;12.90;98.30
12233;DHT22;6179;51.748;8.728;2023-04-23T19:42:57;13.00;98.30
12233;DHT22;6179;51.748;8.728;2023-04-23T19:48:58;13.20;98.30
12233;DHT22;6179;51.748;8.728;2023-04-23T19:54:59;13.30;98.30
12233;DHT22;6179;51.748;8.728;2023-04-23T20:00:59;13.80;98.30
12233;DHT22;6179;51.748;8.728;2023-04-23T20:07:00;14.30;98.30
12233;DHT22;6179;51.748;8.728;2023-04-23T20:13:01;14.50;98.30
12233;DHT22;6179;51.748;8.728;2023-04-23T20:19:01;14.20;98.30
12233;DHT22;6179;51.748;8.728;2023-04-23T20:25:04;14.00;98.30
12233;DHT22;6179;51.748;8.728;2023-04-23T20:31:05;13.40;98.20
12233;DHT22;6179;51.748;8.728;2023-04-23T20:37:06;12.90;98.30
12233;DHT22;6179;51.748;8.728;2023-04-23T20:43:08;13.10;96.60
12233;DHT22;6179;51.748;8.728;2023-04-23T20:49:09;13.40;94.50
12233;DHT22;6179;51.748;8.728;2023-04-23T20:55:10;13.50;94.10
12233;DHT22;6179;51.748;8.728;2023-04-23T21:01:10;13.30;94.10
12233;DHT22;6179;51.748;8.728;2023-04-23T21:07:11;13.30;94.10
12233;DHT22;6179;51.748;8.728;2023-04-23T21:13:12;13.40;94.70
12233;DHT22;6179;51.748;8.728;2023-04-23T21:19:12;13.40;94.70
12233;DHT22;6179;51.748;8.728;2023-04-23T21:25:13;13.30;95.80
12233;DHT22;6179;51.748;8.728;2023-04-23T21:31:21;13.10;95.80
12233;DHT22;6179;51.748;8.728;2023-04-23T21:37:21;13.30;95.60
12233;DHT22;6179;51.748;8.728;2023-04-23T21:43:22;13.60;94.70
12233;DHT22;6179;51.748;8.728;2023-04-23T21:49:23;12.90;96.70
12233;DHT22;6179;51.748;8.728;2023-04-23T21:55:25;12.90;96.40
12233;DHT22;6179;51.748;8.728;2023-04-23T22:01:26;13.00;97.90
12233;DHT22;6179;51.748;8.728;2023-04-23T22:07:26;13.00;97.90
12233;DHT22;6179;51.748;8.728;2023-04-23T22:13:28;13.30;96.90
12233;DHT22;6179;51.748;8.728;2023-04-23T22:19:29;13.00;97.60
12233;DHT22;6179;51.748;8.728;2023-04-23T22:25:30;12.90;97.90
12233;DHT22;6179;51.748;8.728;2023-04-23T22:31:31;12.80;98.20
12233;DHT22;6179;51.748;8.728;2023-04-23T22:37:32;12.70;98.30
12233;DHT22;6179;51.748;8.728;2023-04-23T22:43:33;12.40;98.30
12233;DHT22;6179;51.748;8.728;2023-04-23T22:49:34;12.10;98.30
12233;DHT22;6179;51.748;8.728;2023-04-23T22:55:34;12.10;98.30
12233;DHT22;6179;51.748;8.728;2023-04-23T23:01:35;12.20;98.30
12233;DHT22;6179;51.748;8.728;2023-04-23T23:07:36;12.30;97.40
12233;DHT22;6179;51.748;8.728;2023-04-23T23:13:36;12.20;97.40
12233;DHT22;6179;51.748;8.728;2023-04-23T23:19:38;12.10;95.20
12233;DHT22;6179;51.748;8.728;2023-04-23T23:25:39;12.20;93.30
12233;DHT22;6179;51.748;8.728;2023-04-23T23:31:40;12.20;91.40
12233;DHT22;6179;51.748;8.728;2023-04-23T23:37:41;12.20;89.80
12233;DHT22;6179;51.748;8.728;2023-04-23T23:43:41;12.10;89.70
12233;DHT22;6179;51.748;8.728;2023-04-23T23:49:42;12.10;90.70
12233;DHT22;6179;51.748;8.728;2023-04-23T23:55:43;12.10;91.20
